sensor_id;sensor_type;location;lat;lon;timestamp;P1;durP1;ratioP1;P2;durP2;ratioP2
78581;SDS011;67878;46.242;5.974;2023-05-29T00:02:08;3.75;;;3.00;;
78581;SDS011;67878;46.242;5.974;2023-05-29T00:04:34;4.15;;;3.03;;
78581;SDS011;67878;46.242;5.974;2023-05-29T00:07:00;4.32;;;2.83;;
78581;SDS011;67878;46.242;5.974;2023-05-29T00:09:26;3.25;;;2.78;;
78581;SDS011;67878;46.242;5.974;2023-05-29T00:11:52;3.38;;;3.08;;
78581;SDS011;67878;46.242;5.974;2023-05-29T00:14:18;3.13;;;2.70;;
78581;SDS011;67878;46.242;5.974;2023-05-29T00:16:48;5.13;;;2.65;;
78581;SDS011;67878;46.242;5.974;2023-05-29T00:19:14;3.95;;;3.03;;
78581;SDS011;67878;46.242;5.974;2023-05-29T00:21:42;3.47;;;2.72;;
78581;SDS011;67878;46.242;5.974;2023-05-29T00:24:07;3.65;;;2.70;;
78581;SDS011;67878;46.242;5.974;2023-05-29T00:26:33;4.13;;;2.60;;
78581;SDS011;67878;46.242;5.974;2023-05-29T00:28:58;3.35;;;2.70;;
78581;SDS011;67878;46.242;5.974;2023-05-29T00:31:24;3.22;;;2.75;;
78581;SDS011;67878;46.242;5.974;2023-05-29T00:33:50;3.25;;;2.67;;
78581;SDS011;67878;46.242;5.974;2023-05-29T00:36:15;4.18;;;2.60;;
78581;SDS011;67878;46.242;5.974;2023-05-29T00:38:41;5.07;;;3.17;;
78581;SDS011;67878;46.242;5.974;2023-05-29T00:41:07;3.45;;;2.70;;
78581;SDS011;67878;46.242;5.974;2023-05-29T00:43:33;3.72;;;2.63;;
78581;SDS011;67878;46.242;5.974;2023-05-29T00:45:59;2.70;;;2.47;;
78581;SDS011;67878;46.242;5.974;2023-05-29T00:48:25;4.20;;;2.97;;
78581;SDS011;67878;46.242;5.974;2023-05-29T00:50:51;3.47;;;2.72;;
78581;SDS011;67878;46.242;5.974;2023-05-29T00:53:16;4.57;;;3.20;;
78581;SDS011;67878;46.242;5.974;2023-05-29T00:55:42;3.42;;;2.95;;
78581;SDS011;67878;46.242;5.974;2023-05-29T00:58:07;3.40;;;2.80;;
78581;SDS011;67878;46.242;5.974;2023-05-29T01:00:33;4.03;;;3.17;;
78581;SDS011;67878;46.242;5.974;2023-05-29T01:03:01;4.15;;;2.78;;
78581;SDS011;67878;46.242;5.974;2023-05-29T01:05:30;2.70;;;2.50;;
78581;SDS011;67878;46.242;5.974;2023-05-29T01:07:58;3.45;;;2.75;;
78581;SDS011;67878;46.242;5.974;2023-05-29T01:10:24;3.75;;;2.70;;
78581;SDS011;67878;46.242;5.974;2023-05-29T01:12:55;3.58;;;2.88;;
78581;SDS011;67878;46.242;5.974;2023-05-29T01:20:46;3.30;;;3.00;;
78581;SDS011;67878;46.242;5.974;2023-05-29T01:28:47;3.50;;;2.58;;
78581;SDS011;67878;46.242;5.974;2023-05-29T01:31:14;4.57;;;3.00;;
78581;SDS011;67878;46.242;5.974;2023-05-29T01:33:51;4.30;;;3.22;;
78581;SDS011;67878;46.242;5.974;2023-05-29T01:36:17;4.60;;;3.10;;
78581;SDS011;67878;46.242;5.974;2023-05-29T01:38:43;3.47;;;2.67;;
78581;SDS011;67878;46.242;5.974;2023-05-29T01:41:09;3.40;;;2.45;;
78581;SDS011;67878;46.242;5.974;2023-05-29T01:43:34;3.60;;;2.80;;
78581;SDS011;67878;46.242;5.974;2023-05-29T01:46:00;4.07;;;3.20;;
78581;SDS011;67878;46.242;5.974;2023-05-29T01:48:26;3.70;;;2.72;;
78581;SDS011;67878;46.242;5.974;2023-05-29T01:50:52;3.55;;;3.00;;
78581;SDS011;67878;46.242;5.974;2023-05-29T01:53:17;3.35;;;2.40;;
78581;SDS011;67878;46.242;5.974;2023-05-29T01:55:43;4.05;;;2.88;;
78581;SDS011;67878;46.242;5.974;2023-05-29T01:58:08;3.35;;;2.75;;
78581;SDS011;67878;46.242;5.974;2023-05-29T02:00:35;3.40;;;2.60;;
78581;SDS011;67878;46.242;5.974;2023-05-29T02:03:03;4.75;;;2.67;;
78581;SDS011;67878;46.242;5.974;2023-05-29T02:05:28;4.60;;;2.58;;
78581;SDS011;67878;46.242;5.974;2023-05-29T02:07:54;4.32;;;2.88;;
78581;SDS011;67878;46.242;5.974;2023-05-29T02:10:19;4.13;;;2.85;;
78581;SDS011;67878;46.242;5.974;2023-05-29T02:12:45;3.55;;;2.70;;
78581;SDS011;67878;46.242;5.974;2023-05-29T02:15:11;3.58;;;3.05;;
78581;SDS011;67878;46.242;5.974;2023-05-29T02:17:36;3.60;;;2.65;;
78581;SDS011;67878;46.242;5.974;2023-05-29T02:20:02;3.72;;;2.90;;
78581;SDS011;67878;46.242;5.974;2023-05-29T02:22:31;4.25;;;2.83;;
78581;SDS011;67878;46.242;5.974;2023-05-29T02:24:56;4.20;;;2.75;;
78581;SDS011;67878;46.242;5.974;2023-05-29T02:27:22;3.33;;;2.70;;
78581;SDS011;67878;46.242;5.974;2023-05-29T02:29:47;3.47;;;2.83;;
78581;SDS011;67878;46.242;5.974;2023-05-29T02:32:13;4.75;;;3.10;;
78581;SDS011;67878;46.242;5.974;2023-05-29T02:34:38;4.90;;;3.42;;
78581;SDS011;67878;46.242;5.974;2023-05-29T02:37:04;3.65;;;2.70;;
78581;SDS011;67878;46.242;5.974;2023-05-29T02:39:30;3.30;;;2.65;;
78581;SDS011;67878;46.242;5.974;2023-05-29T02:41:55;4.25;;;3.20;;
78581;SDS011;67878;46.242;5.974;2023-05-29T02:44:21;4.50;;;2.90;;
78581;SDS011;67878;46.242;5.974;2023-05-29T02:46:46;3.42;;;2.80;;
78581;SDS011;67878;46.242;5.974;2023-05-29T02:49:12;4.13;;;2.75;;
78581;SDS011;67878;46.242;5.974;2023-05-29T02:51:37;3.95;;;3.15;;
78581;SDS011;67878;46.242;5.974;2023-05-29T02:54:03;2.92;;;2.63;;
78581;SDS011;67878;46.242;5.974;2023-05-29T02:56:29;3.95;;;2.80;;
78581;SDS011;67878;46.242;5.974;2023-05-29T02:58:54;3.80;;;2.90;;
78581;SDS011;67878;46.242;5.974;2023-05-29T03:01:20;4.00;;;2.88;;
78581;SDS011;67878;46.242;5.974;2023-05-29T03:03:46;4.07;;;3.00;;
78581;SDS011;67878;46.242;5.974;2023-05-29T03:06:11;3.88;;;2.95;;
78581;SDS011;67878;46.242;5.974;2023-05-29T03:08:41;3.78;;;2.60;;
78581;SDS011;67878;46.242;5.974;2023-05-29T03:11:10;4.68;;;3.03;;
78581;SDS011;67878;46.242;5.974;2023-05-29T03:13:37;4.38;;;3.03;;
78581;SDS011;67878;46.242;5.974;2023-05-29T03:16:03;4.38;;;2.70;;
78581;SDS011;67878;46.242;5.974;2023-05-29T03:18:28;3.65;;;2.70;;
78581;SDS011;67878;46.242;5.974;2023-05-29T03:20:54;3.30;;;2.40;;
78581;SDS011;67878;46.242;5.974;2023-05-29T03:23:20;4.05;;;2.95;;
78581;SDS011;67878;46.242;5.974;2023-05-29T03:25:45;3.65;;;2.65;;
78581;SDS011;67878;46.242;5.974;2023-05-29T03:28:10;4.70;;;3.22;;
78581;SDS011;67878;46.242;5.974;2023-05-29T03:30:37;3.38;;;2.45;;
78581;SDS011;67878;46.242;5.974;2023-05-29T03:33:03;3.58;;;3.10;;
78581;SDS011;67878;46.242;5.974;2023-05-29T03:35:29;3.38;;;2.50;;
78581;SDS011;67878;46.242;5.974;2023-05-29T03:37:55;4.25;;;2.70;;
78581;SDS011;67878;46.242;5.974;2023-05-29T03:40:21;4.85;;;3.38;;
78581;SDS011;67878;46.242;5.974;2023-05-29T03:42:46;3.58;;;2.83;;
78581;SDS011;67878;46.242;5.974;2023-05-29T03:45:12;4.50;;;2.95;;
78581;SDS011;67878;46.242;5.974;2023-05-29T03:47:37;3.72;;;2.60;;
78581;SDS011;67878;46.242;5.974;2023-05-29T03:50:03;3.33;;;2.85;;
78581;SDS011;67878;46.242;5.974;2023-05-29T03:52:29;4.05;;;3.30;;
78581;SDS011;67878;46.242;5.974;2023-05-29T03:54:55;4.32;;;3.00;;
78581;SDS011;67878;46.242;5.974;2023-05-29T03:57:20;3.75;;;2.75;;
78581;SDS011;67878;46.242;5.974;2023-05-29T03:59:45;3.65;;;2.67;;
78581;SDS011;67878;46.242;5.974;2023-05-29T04:02:11;3.60;;;2.70;;
78581;SDS011;67878;46.242;5.974;2023-05-29T04:04:38;4.07;;;2.75;;
78581;SDS011;67878;46.242;5.974;2023-05-29T04:07:04;4.03;;;2.67;;
78581;SDS011;67878;46.242;5.974;2023-05-29T04:09:32;3.13;;;2.35;;
78581;SDS011;67878;46.242;5.974;2023-05-29T04:11:59;4.20;;;2.90;;
78581;SDS011;67878;46.242;5.974;2023-05-29T04:14:27;4.40;;;2.75;;
78581;SDS011;67878;46.242;5.974;2023-05-29T04:16:54;4.00;;;2.60;;
78581;SDS011;67878;46.242;5.974;2023-05-29T04:19:20;3.75;;;2.60;;
78581;SDS011;67878;46.242;5.974;2023-05-29T04:21:46;4.07;;;2.85;;
78581;SDS011;67878;46.242;5.974;2023-05-29T04:24:13;3.63;;;2.55;;
78581;SDS011;67878;46.242;5.974;2023-05-29T04:26:39;4.30;;;2.80;;
78581;SDS011;67878;46.242;5.974;2023-05-29T04:29:06;4.10;;;2.88;;
78581;SDS011;67878;46.242;5.974;2023-05-29T04:31:32;4.85;;;2.90;;
78581;SDS011;67878;46.242;5.974;2023-05-29T04:33:58;4.40;;;2.90;;
78581;SDS011;67878;46.242;5.974;2023-05-29T04:36:25;4.28;;;2.60;;
78581;SDS011;67878;46.242;5.974;2023-05-29T04:38:52;3.88;;;3.05;;
78581;SDS011;67878;46.242;5.974;2023-05-29T04:41:19;3.58;;;2.72;;
78581;SDS011;67878;46.242;5.974;2023-05-29T04:43:49;3.05;;;2.50;;
78581;SDS011;67878;46.242;5.974;2023-05-29T04:46:16;3.65;;;2.53;;
78581;SDS011;67878;46.242;5.974;2023-05-29T04:48:42;3.55;;;2.80;;
78581;SDS011;67878;46.242;5.974;2023-05-29T04:51:09;3.80;;;2.70;;
78581;SDS011;67878;46.242;5.974;2023-05-29T04:53:36;2.85;;;2.42;;
78581;SDS011;67878;46.242;5.974;2023-05-29T04:56:07;3.63;;;2.50;;
78581;SDS011;67878;46.242;5.974;2023-05-29T04:58:33;3.72;;;2.72;;
78581;SDS011;67878;46.242;5.974;2023-05-29T05:00:58;4.22;;;3.00;;
78581;SDS011;67878;46.242;5.974;2023-05-29T05:03:25;3.33;;;2.45;;
78581;SDS011;67878;46.242;5.974;2023-05-29T05:05:51;3.25;;;2.72;;
78581;SDS011;67878;46.242;5.974;2023-05-29T05:08:17;3.30;;;2.95;;
78581;SDS011;67878;46.242;5.974;2023-05-29T05:10:43;3.55;;;2.67;;
78581;SDS011;67878;46.242;5.974;2023-05-29T05:13:08;4.38;;;2.80;;
78581;SDS011;67878;46.242;5.974;2023-05-29T05:15:35;3.25;;;2.85;;
78581;SDS011;67878;46.242;5.974;2023-05-29T05:18:04;3.25;;;2.80;;
78581;SDS011;67878;46.242;5.974;2023-05-29T05:20:30;4.18;;;2.75;;
78581;SDS011;67878;46.242;5.974;2023-05-29T05:22:56;3.05;;;2.72;;
78581;SDS011;67878;46.242;5.974;2023-05-29T05:25:22;4.28;;;2.75;;
78581;SDS011;67878;46.242;5.974;2023-05-29T05:27:47;3.35;;;2.53;;
78581;SDS011;67878;46.242;5.974;2023-05-29T05:30:13;3.13;;;2.45;;
78581;SDS011;67878;46.242;5.974;2023-05-29T05:32:39;3.88;;;2.72;;
78581;SDS011;67878;46.242;5.974;2023-05-29T05:35:04;3.83;;;2.60;;
78581;SDS011;67878;46.242;5.974;2023-05-29T05:37:30;5.63;;;2.50;;
78581;SDS011;67878;46.242;5.974;2023-05-29T05:39:56;4.57;;;2.30;;
78581;SDS011;67878;46.242;5.974;2023-05-29T05:42:23;3.80;;;2.70;;
78581;SDS011;67878;46.242;5.974;2023-05-29T05:44:49;3.63;;;2.40;;
78581;SDS011;67878;46.242;5.974;2023-05-29T05:47:14;5.15;;;2.75;;
78581;SDS011;67878;46.242;5.974;2023-05-29T05:49:40;4.45;;;2.67;;
78581;SDS011;67878;46.242;5.974;2023-05-29T05:52:05;5.82;;;2.92;;
78581;SDS011;67878;46.242;5.974;2023-05-29T05:54:31;3.72;;;2.53;;
78581;SDS011;67878;46.242;5.974;2023-05-29T05:56:56;3.58;;;2.70;;
78581;SDS011;67878;46.242;5.974;2023-05-29T05:59:21;3.47;;;2.70;;
78581;SDS011;67878;46.242;5.974;2023-05-29T06:01:47;5.40;;;2.58;;
78581;SDS011;67878;46.242;5.974;2023-05-29T06:04:12;3.30;;;2.50;;
78581;SDS011;67878;46.242;5.974;2023-05-29T06:06:38;4.38;;;2.80;;
78581;SDS011;67878;46.242;5.974;2023-05-29T06:09:04;3.70;;;2.60;;
78581;SDS011;67878;46.242;5.974;2023-05-29T06:11:32;4.47;;;2.40;;
78581;SDS011;67878;46.242;5.974;2023-05-29T06:13:58;3.78;;;2.55;;
78581;SDS011;67878;46.242;5.974;2023-05-29T06:16:24;6.45;;;2.80;;
78581;SDS011;67878;46.242;5.974;2023-05-29T06:18:50;4.82;;;2.33;;
78581;SDS011;67878;46.242;5.974;2023-05-29T06:21:15;8.38;;;3.22;;
78581;SDS011;67878;46.242;5.974;2023-05-29T06:23:41;4.15;;;2.50;;
78581;SDS011;67878;46.242;5.974;2023-05-29T06:26:06;3.45;;;2.63;;
78581;SDS011;67878;46.242;5.974;2023-05-29T06:28:32;4.75;;;2.78;;
78581;SDS011;67878;46.242;5.974;2023-05-29T06:30:57;6.75;;;2.80;;
78581;SDS011;67878;46.242;5.974;2023-05-29T06:33:23;3.88;;;3.20;;
78581;SDS011;67878;46.242;5.974;2023-05-29T06:35:49;5.85;;;2.55;;
78581;SDS011;67878;46.242;5.974;2023-05-29T06:38:14;5.18;;;2.63;;
78581;SDS011;67878;46.242;5.974;2023-05-29T06:40:40;5.70;;;3.00;;
78581;SDS011;67878;46.242;5.974;2023-05-29T06:43:05;6.75;;;2.97;;
78581;SDS011;67878;46.242;5.974;2023-05-29T06:45:31;5.63;;;2.85;;
78581;SDS011;67878;46.242;5.974;2023-05-29T06:47:56;6.65;;;2.60;;
78581;SDS011;67878;46.242;5.974;2023-05-29T06:50:22;3.65;;;2.42;;
78581;SDS011;67878;46.242;5.974;2023-05-29T06:52:47;3.95;;;2.53;;
78581;SDS011;67878;46.242;5.974;2023-05-29T06:55:13;3.33;;;2.67;;
78581;SDS011;67878;46.242;5.974;2023-05-29T06:57:38;5.88;;;2.80;;
78581;SDS011;67878;46.242;5.974;2023-05-29T07:00:04;3.65;;;2.78;;
78581;SDS011;67878;46.242;5.974;2023-05-29T07:02:31;3.10;;;2.65;;
78581;SDS011;67878;46.242;5.974;2023-05-29T07:04:57;5.80;;;3.10;;
78581;SDS011;67878;46.242;5.974;2023-05-29T07:07:22;3.58;;;2.40;;
78581;SDS011;67878;46.242;5.974;2023-05-29T07:09:47;4.70;;;2.90;;
78581;SDS011;67878;46.242;5.974;2023-05-29T07:12:13;4.80;;;2.45;;
78581;SDS011;67878;46.242;5.974;2023-05-29T07:14:38;3.75;;;2.65;;
78581;SDS011;67878;46.242;5.974;2023-05-29T07:17:04;3.42;;;2.55;;
78581;SDS011;67878;46.242;5.974;2023-05-29T07:19:30;3.92;;;2.97;;
78581;SDS011;67878;46.242;5.974;2023-05-29T07:21:59;5.32;;;2.72;;
78581;SDS011;67878;46.242;5.974;2023-05-29T07:24:25;4.13;;;2.63;;
78581;SDS011;67878;46.242;5.974;2023-05-29T07:26:50;4.50;;;2.85;;
78581;SDS011;67878;46.242;5.974;2023-05-29T07:29:16;4.35;;;3.03;;
78581;SDS011;67878;46.242;5.974;2023-05-29T07:31:43;4.07;;;2.35;;
78581;SDS011;67878;46.242;5.974;2023-05-29T07:34:09;5.50;;;2.78;;
78581;SDS011;67878;46.242;5.974;2023-05-29T07:36:35;3.33;;;2.63;;
78581;SDS011;67878;46.242;5.974;2023-05-29T07:39:01;3.38;;;2.95;;
78581;SDS011;67878;46.242;5.974;2023-05-29T07:41:27;5.07;;;2.80;;
78581;SDS011;67878;46.242;5.974;2023-05-29T07:43:52;4.82;;;2.97;;
78581;SDS011;67878;46.242;5.974;2023-05-29T07:46:18;4.25;;;2.90;;
78581;SDS011;67878;46.242;5.974;2023-05-29T07:48:44;2.90;;;2.60;;
78581;SDS011;67878;46.242;5.974;2023-05-29T07:51:11;3.45;;;2.40;;
78581;SDS011;67878;46.242;5.974;2023-05-29T07:53:37;3.17;;;2.33;;
78581;SDS011;67878;46.242;5.974;2023-05-29T07:56:02;2.90;;;2.60;;
78581;SDS011;67878;46.242;5.974;2023-05-29T07:58:27;5.28;;;2.80;;
78581;SDS011;67878;46.242;5.974;2023-05-29T08:00:53;4.40;;;2.58;;
78581;SDS011;67878;46.242;5.974;2023-05-29T08:03:18;3.03;;;2.50;;
78581;SDS011;67878;46.242;5.974;2023-05-29T08:05:44;3.78;;;2.80;;
78581;SDS011;67878;46.242;5.974;2023-05-29T08:08:09;3.33;;;2.40;;
78581;SDS011;67878;46.242;5.974;2023-05-29T08:10:37;4.78;;;2.92;;
78581;SDS011;67878;46.242;5.974;2023-05-29T08:13:03;3.25;;;2.60;;
78581;SDS011;67878;46.242;5.974;2023-05-29T08:15:29;5.13;;;3.00;;
78581;SDS011;67878;46.242;5.974;2023-05-29T08:17:56;2.88;;;2.40;;
78581;SDS011;67878;46.242;5.974;2023-05-29T08:20:21;3.97;;;2.72;;
78581;SDS011;67878;46.242;5.974;2023-05-29T08:22:47;4.70;;;2.90;;
78581;SDS011;67878;46.242;5.974;2023-05-29T08:25:12;3.03;;;2.70;;
78581;SDS011;67878;46.242;5.974;2023-05-29T08:27:37;3.30;;;2.63;;
78581;SDS011;67878;46.242;5.974;2023-05-29T08:30:03;5.00;;;2.92;;
78581;SDS011;67878;46.242;5.974;2023-05-29T08:32:29;4.18;;;2.80;;
78581;SDS011;67878;46.242;5.974;2023-05-29T08:34:54;3.33;;;2.53;;
78581;SDS011;67878;46.242;5.974;2023-05-29T08:37:20;3.83;;;2.90;;
78581;SDS011;67878;46.242;5.974;2023-05-29T08:39:46;4.60;;;2.80;;
78581;SDS011;67878;46.242;5.974;2023-05-29T08:42:21;3.05;;;2.75;;
78581;SDS011;67878;46.242;5.974;2023-05-29T08:44:55;3.13;;;2.83;;
78581;SDS011;67878;46.242;5.974;2023-05-29T08:47:22;4.05;;;2.72;;
78581;SDS011;67878;46.242;5.974;2023-05-29T08:49:51;4.07;;;2.53;;
78581;SDS011;67878;46.242;5.974;2023-05-29T08:52:24;3.90;;;2.80;;
78581;SDS011;67878;46.242;5.974;2023-05-29T08:57:18;3.00;;;2.65;;
78581;SDS011;67878;46.242;5.974;2023-05-29T08:59:43;3.45;;;2.53;;
78581;SDS011;67878;46.242;5.974;2023-05-29T09:02:10;3.72;;;2.50;;
78581;SDS011;67878;46.242;5.974;2023-05-29T09:04:36;2.80;;;2.50;;
78581;SDS011;67878;46.242;5.974;2023-05-29T09:07:02;2.80;;;2.22;;
78581;SDS011;67878;46.242;5.974;2023-05-29T09:09:29;3.63;;;2.67;;
78581;SDS011;67878;46.242;5.974;2023-05-29T09:11:56;3.35;;;2.45;;
78581;SDS011;67878;46.242;5.974;2023-05-29T09:14:32;4.22;;;2.97;;
78581;SDS011;67878;46.242;5.974;2023-05-29T09:16:59;3.28;;;2.50;;
78581;SDS011;67878;46.242;5.974;2023-05-29T09:19:25;4.40;;;2.97;;
78581;SDS011;67878;46.242;5.974;2023-05-29T09:21:51;3.65;;;2.50;;
78581;SDS011;67878;46.242;5.974;2023-05-29T09:24:16;4.05;;;2.33;;
78581;SDS011;67878;46.242;5.974;2023-05-29T09:26:50;3.80;;;2.90;;
78581;SDS011;67878;46.242;5.974;2023-05-29T09:31:47;4.05;;;3.10;;
78581;SDS011;67878;46.242;5.974;2023-05-29T09:34:13;3.53;;;2.40;;
78581;SDS011;67878;46.242;5.974;2023-05-29T09:36:38;4.03;;;2.90;;
78581;SDS011;67878;46.242;5.974;2023-05-29T09:39:03;3.67;;;2.70;;
78581;SDS011;67878;46.242;5.974;2023-05-29T09:41:29;3.35;;;2.78;;
78581;SDS011;67878;46.242;5.974;2023-05-29T09:43:56;3.67;;;2.60;;
78581;SDS011;67878;46.242;5.974;2023-05-29T09:46:22;3.55;;;3.05;;
78581;SDS011;67878;46.242;5.974;2023-05-29T09:48:47;3.85;;;2.80;;
78581;SDS011;67878;46.242;5.974;2023-05-29T09:51:23;4.07;;;2.53;;
78581;SDS011;67878;46.242;5.974;2023-05-29T09:53:49;3.15;;;2.33;;
78581;SDS011;67878;46.242;5.974;2023-05-29T09:56:16;3.75;;;2.60;;
78581;SDS011;67878;46.242;5.974;2023-05-29T09:58:42;3.85;;;2.70;;
78581;SDS011;67878;46.242;5.974;2023-05-29T10:01:13;3.60;;;2.80;;
78581;SDS011;67878;46.242;5.974;2023-05-29T10:03:42;3.60;;;2.80;;
78581;SDS011;67878;46.242;5.974;2023-05-29T10:06:10;3.20;;;2.80;;
78581;SDS011;67878;46.242;5.974;2023-05-29T10:11:12;4.80;;;2.45;;
78581;SDS011;67878;46.242;5.974;2023-05-29T10:13:41;4.03;;;2.65;;
78581;SDS011;67878;46.242;5.974;2023-05-29T10:16:08;3.60;;;2.80;;
78581;SDS011;67878;46.242;5.974;2023-05-29T10:18:37;3.10;;;2.60;;
78581;SDS011;67878;46.242;5.974;2023-05-29T10:21:07;4.35;;;2.72;;
78581;SDS011;67878;46.242;5.974;2023-05-29T10:23:32;4.53;;;2.63;;
78581;SDS011;67878;46.242;5.974;2023-05-29T10:26:15;3.28;;;2.47;;
78581;SDS011;67878;46.242;5.974;2023-05-29T10:28:46;3.28;;;2.63;;
78581;SDS011;67878;46.242;5.974;2023-05-29T10:31:18;3.45;;;2.67;;
78581;SDS011;67878;46.242;5.974;2023-05-29T10:34:29;4.28;;;2.83;;
78581;SDS011;67878;46.242;5.974;2023-05-29T10:37:00;3.05;;;2.75;;
78581;SDS011;67878;46.242;5.974;2023-05-29T10:39:29;3.30;;;2.40;;
78581;SDS011;67878;46.242;5.974;2023-05-29T10:41:54;2.63;;;2.20;;
78581;SDS011;67878;46.242;5.974;2023-05-29T10:47:04;3.40;;;2.70;;
78581;SDS011;67878;46.242;5.974;2023-05-29T10:51:56;3.75;;;2.65;;
78581;SDS011;67878;46.242;5.974;2023-05-29T10:54:23;3.42;;;2.63;;
78581;SDS011;67878;46.242;5.974;2023-05-29T10:56:55;3.47;;;2.28;;
78581;SDS011;67878;46.242;5.974;2023-05-29T10:59:25;4.65;;;2.55;;
78581;SDS011;67878;46.242;5.974;2023-05-29T11:01:52;4.22;;;2.75;;
78581;SDS011;67878;46.242;5.974;2023-05-29T11:06:50;5.85;;;3.45;;
78581;SDS011;67878;46.242;5.974;2023-05-29T11:14:54;6.78;;;3.53;;
78581;SDS011;67878;46.242;5.974;2023-05-29T11:17:44;7.22;;;3.92;;
78581;SDS011;67878;46.242;5.974;2023-05-29T11:20:20;5.93;;;3.75;;
78581;SDS011;67878;46.242;5.974;2023-05-29T11:25:23;5.38;;;3.72;;
78581;SDS011;67878;46.242;5.974;2023-05-29T11:27:49;5.03;;;4.00;;
78581;SDS011;67878;46.242;5.974;2023-05-29T11:30:17;6.57;;;4.15;;
78581;SDS011;67878;46.242;5.974;2023-05-29T11:32:43;6.00;;;4.07;;
78581;SDS011;67878;46.242;5.974;2023-05-29T11:35:10;10.57;;;4.35;;
78581;SDS011;67878;46.242;5.974;2023-05-29T11:37:37;5.80;;;4.30;;
78581;SDS011;67878;46.242;5.974;2023-05-29T11:40:06;5.75;;;3.95;;
78581;SDS011;67878;46.242;5.974;2023-05-29T11:42:36;5.68;;;3.88;;
78581;SDS011;67878;46.242;5.974;2023-05-29T11:45:21;6.00;;;3.78;;
78581;SDS011;67878;46.242;5.974;2023-05-29T11:47:53;6.88;;;3.83;;
78581;SDS011;67878;46.242;5.974;2023-05-29T11:50:28;9.82;;;4.35;;
78581;SDS011;67878;46.242;5.974;2023-05-29T11:52:57;6.38;;;4.00;;
78581;SDS011;67878;46.242;5.974;2023-05-29T11:55:24;6.38;;;4.30;;
78581;SDS011;67878;46.242;5.974;2023-05-29T11:57:50;5.68;;;3.95;;
78581;SDS011;67878;46.242;5.974;2023-05-29T12:00:25;5.95;;;3.88;;
78581;SDS011;67878;46.242;5.974;2023-05-29T12:02:51;5.47;;;3.75;;
78581;SDS011;67878;46.242;5.974;2023-05-29T12:05:17;5.07;;;3.35;;
78581;SDS011;67878;46.242;5.974;2023-05-29T12:07:53;6.68;;;3.70;;
78581;SDS011;67878;46.242;5.974;2023-05-29T12:10:21;6.47;;;3.50;;
78581;SDS011;67878;46.242;5.974;2023-05-29T12:12:54;4.97;;;3.65;;
78581;SDS011;67878;46.242;5.974;2023-05-29T12:15:23;5.10;;;3.75;;
78581;SDS011;67878;46.242;5.974;2023-05-29T12:17:50;4.72;;;3.72;;
78581;SDS011;67878;46.242;5.974;2023-05-29T12:20:16;6.15;;;3.50;;
78581;SDS011;67878;46.242;5.974;2023-05-29T12:22:42;5.25;;;3.85;;
78581;SDS011;67878;46.242;5.974;2023-05-29T12:25:12;5.60;;;3.85;;
78581;SDS011;67878;46.242;5.974;2023-05-29T12:27:39;4.88;;;3.42;;
78581;SDS011;67878;46.242;5.974;2023-05-29T12:30:11;4.78;;;2.95;;
78581;SDS011;67878;46.242;5.974;2023-05-29T12:32:42;4.72;;;3.50;;
78581;SDS011;67878;46.242;5.974;2023-05-29T12:35:18;5.15;;;3.50;;
78581;SDS011;67878;46.242;5.974;2023-05-29T12:38:00;5.30;;;3.85;;
78581;SDS011;67878;46.242;5.974;2023-05-29T12:40:27;5.53;;;4.03;;
78581;SDS011;67878;46.242;5.974;2023-05-29T12:42:54;5.00;;;3.60;;
78581;SDS011;67878;46.242;5.974;2023-05-29T12:45:21;7.97;;;3.72;;
78581;SDS011;67878;46.242;5.974;2023-05-29T12:50:22;4.95;;;3.15;;
78581;SDS011;67878;46.242;5.974;2023-05-29T12:55:22;4.80;;;3.63;;
78581;SDS011;67878;46.242;5.974;2023-05-29T12:57:48;3.53;;;3.00;;
78581;SDS011;67878;46.242;5.974;2023-05-29T13:00:14;5.10;;;2.97;;
78581;SDS011;67878;46.242;5.974;2023-05-29T13:02:39;4.10;;;3.38;;
78581;SDS011;67878;46.242;5.974;2023-05-29T13:05:05;4.72;;;3.30;;
78581;SDS011;67878;46.242;5.974;2023-05-29T13:07:32;5.18;;;3.50;;
78581;SDS011;67878;46.242;5.974;2023-05-29T13:09:58;4.50;;;3.33;;
78581;SDS011;67878;46.242;5.974;2023-05-29T13:12:24;4.70;;;3.47;;
78581;SDS011;67878;46.242;5.974;2023-05-29T13:14:50;4.38;;;3.40;;
78581;SDS011;67878;46.242;5.974;2023-05-29T13:17:15;3.83;;;3.28;;
78581;SDS011;67878;46.242;5.974;2023-05-29T13:19:41;5.47;;;3.60;;
78581;SDS011;67878;46.242;5.974;2023-05-29T13:22:06;4.93;;;3.40;;
78581;SDS011;67878;46.242;5.974;2023-05-29T13:24:32;3.38;;;3.00;;
78581;SDS011;67878;46.242;5.974;2023-05-29T13:26:57;3.75;;;2.92;;
78581;SDS011;67878;46.242;5.974;2023-05-29T13:29:25;4.50;;;2.95;;
78581;SDS011;67878;46.242;5.974;2023-05-29T13:31:51;4.38;;;3.13;;
78581;SDS011;67878;46.242;5.974;2023-05-29T13:34:17;5.60;;;3.03;;
78581;SDS011;67878;46.242;5.974;2023-05-29T13:36:42;4.47;;;2.83;;
78581;SDS011;67878;46.242;5.974;2023-05-29T13:39:09;3.47;;;2.70;;
78581;SDS011;67878;46.242;5.974;2023-05-29T13:41:35;4.22;;;2.90;;
78581;SDS011;67878;46.242;5.974;2023-05-29T13:44:00;4.28;;;2.90;;
78581;SDS011;67878;46.242;5.974;2023-05-29T13:46:26;3.72;;;2.88;;
78581;SDS011;67878;46.242;5.974;2023-05-29T13:48:52;5.15;;;3.17;;
78581;SDS011;67878;46.242;5.974;2023-05-29T13:51:17;3.10;;;2.58;;
78581;SDS011;67878;46.242;5.974;2023-05-29T13:53:43;4.68;;;3.20;;
78581;SDS011;67878;46.242;5.974;2023-05-29T13:56:08;4.90;;;3.20;;
78581;SDS011;67878;46.242;5.974;2023-05-29T13:58:33;4.00;;;2.85;;
78581;SDS011;67878;46.242;5.974;2023-05-29T14:00:59;4.47;;;3.00;;
78581;SDS011;67878;46.242;5.974;2023-05-29T14:03:25;3.75;;;3.08;;
78581;SDS011;67878;46.242;5.974;2023-05-29T14:05:53;3.42;;;2.72;;
78581;SDS011;67878;46.242;5.974;2023-05-29T14:08:19;4.32;;;3.13;;
78581;SDS011;67878;46.242;5.974;2023-05-29T14:10:45;4.40;;;3.45;;
78581;SDS011;67878;46.242;5.974;2023-05-29T14:13:10;3.53;;;2.92;;
78581;SDS011;67878;46.242;5.974;2023-05-29T14:15:36;4.22;;;2.80;;
78581;SDS011;67878;46.242;5.974;2023-05-29T14:18:01;4.10;;;3.00;;
78581;SDS011;67878;46.242;5.974;2023-05-29T14:20:27;4.20;;;3.03;;
78581;SDS011;67878;46.242;5.974;2023-05-29T14:22:53;4.28;;;2.90;;
78581;SDS011;67878;46.242;5.974;2023-05-29T14:25:19;3.20;;;2.58;;
78581;SDS011;67878;46.242;5.974;2023-05-29T14:27:45;3.80;;;2.80;;
78581;SDS011;67878;46.242;5.974;2023-05-29T14:30:10;3.38;;;2.90;;
78581;SDS011;67878;46.242;5.974;2023-05-29T14:32:36;3.45;;;2.83;;
78581;SDS011;67878;46.242;5.974;2023-05-29T14:35:01;3.90;;;3.15;;
78581;SDS011;67878;46.242;5.974;2023-05-29T14:37:27;4.38;;;2.88;;
78581;SDS011;67878;46.242;5.974;2023-05-29T14:39:52;2.67;;;2.47;;
78581;SDS011;67878;46.242;5.974;2023-05-29T14:42:18;3.92;;;2.85;;
78581;SDS011;67878;46.242;5.974;2023-05-29T14:44:43;3.40;;;2.70;;
78581;SDS011;67878;46.242;5.974;2023-05-29T14:47:08;3.45;;;2.50;;
78581;SDS011;67878;46.242;5.974;2023-05-29T14:49:35;4.18;;;3.13;;
78581;SDS011;67878;46.242;5.974;2023-05-29T14:52:01;3.00;;;2.50;;
78581;SDS011;67878;46.242;5.974;2023-05-29T14:54:29;3.65;;;3.00;;
78581;SDS011;67878;46.242;5.974;2023-05-29T14:56:54;3.15;;;2.72;;
78581;SDS011;67878;46.242;5.974;2023-05-29T14:59:20;4.07;;;2.78;;
78581;SDS011;67878;46.242;5.974;2023-05-29T15:01:46;4.15;;;2.72;;
78581;SDS011;67878;46.242;5.974;2023-05-29T15:04:11;3.53;;;2.70;;
78581;SDS011;67878;46.242;5.974;2023-05-29T15:06:37;4.05;;;2.60;;
78581;SDS011;67878;46.242;5.974;2023-05-29T15:09:02;3.22;;;2.55;;
78581;SDS011;67878;46.242;5.974;2023-05-29T15:11:31;3.65;;;2.88;;
78581;SDS011;67878;46.242;5.974;2023-05-29T15:13:56;3.67;;;2.83;;
78581;SDS011;67878;46.242;5.974;2023-05-29T15:16:22;3.70;;;2.63;;
78581;SDS011;67878;46.242;5.974;2023-05-29T15:18:47;3.63;;;2.67;;
78581;SDS011;67878;46.242;5.974;2023-05-29T15:21:13;3.38;;;2.78;;
78581;SDS011;67878;46.242;5.974;2023-05-29T15:23:38;3.63;;;2.63;;
78581;SDS011;67878;46.242;5.974;2023-05-29T15:26:05;2.97;;;2.53;;